sensor_id;sensor_type;location;lat;lon;timestamp;P1;durP1;ratioP1;P2;durP2;ratioP2
14890;SDS011;7537;48.014;11.590;2023-05-07T00:00:07;3.23;;;2.99;;
14890;SDS011;7537;48.014;11.590;2023-05-07T00:05:35;3.12;;;3.22;;
14890;SDS011;7537;48.014;11.590;2023-05-07T00:11:02;6.81;;;3.47;;
14890;SDS011;7537;48.014;11.590;2023-05-07T00:16:30;4.71;;;3.01;;
14890;SDS011;7537;48.014;11.590;2023-05-07T00:22:00;3.01;;;3.12;;
14890;SDS011;7537;48.014;11.590;2023-05-07T00:27:27;5.61;;;5.34;;
14890;SDS011;7537;48.014;11.590;2023-05-07T00:32:55;5.26;;;3.43;;
14890;SDS011;7537;48.014;11.590;2023-05-07T00:38:22;3.84;;;3.93;;
14890;SDS011;7537;48.014;11.590;2023-05-07T00:43:53;3.32;;;3.37;;
14890;SDS011;7537;48.014;11.590;2023-05-07T00:49:20;6.52;;;3.50;;
14890;SDS011;7537;48.014;11.590;2023-05-07T00:54:49;3.24;;;3.35;;
14890;SDS011;7537;48.014;11.590;2023-05-07T01:00:17;3.62;;;3.64;;
14890;SDS011;7537;48.014;11.590;2023-05-07T01:05:45;3.56;;;3.69;;
14890;SDS011;7537;48.014;11.590;2023-05-07T01:11:13;4.02;;;3.74;;
14890;SDS011;7537;48.014;11.590;2023-05-07T01:16:40;5.49;;;3.86;;
14890;SDS011;7537;48.014;11.590;2023-05-07T01:22:09;3.39;;;3.52;;
14890;SDS011;7537;48.014;11.590;2023-05-07T01:27:38;3.55;;;3.42;;
14890;SDS011;7537;48.014;11.590;2023-05-07T01:33:06;5.64;;;3.40;;
14890;SDS011;7537;48.014;11.590;2023-05-07T01:38:35;3.29;;;3.41;;
14890;SDS011;7537;48.014;11.590;2023-05-07T01:44:06;6.10;;;3.52;;
14890;SDS011;7537;48.014;11.590;2023-05-07T01:49:34;4.61;;;3.52;;
14890;SDS011;7537;48.014;11.590;2023-05-07T01:55:02;3.29;;;3.33;;
14890;SDS011;7537;48.014;11.590;2023-05-07T02:00:31;3.64;;;3.83;;
14890;SDS011;7537;48.014;11.590;2023-05-07T02:05:58;3.62;;;3.71;;
14890;SDS011;7537;48.014;11.590;2023-05-07T02:11:26;3.86;;;3.14;;
14890;SDS011;7537;48.014;11.590;2023-05-07T02:16:53;3.61;;;3.51;;
14890;SDS011;7537;48.014;11.590;2023-05-07T02:22:20;4.90;;;3.38;;
14890;SDS011;7537;48.014;11.590;2023-05-07T02:27:48;3.96;;;3.63;;
14890;SDS011;7537;48.014;11.590;2023-05-07T02:33:17;3.77;;;2.99;;
14890;SDS011;7537;48.014;11.590;2023-05-07T02:38:48;3.33;;;3.50;;
14890;SDS011;7537;48.014;11.590;2023-05-07T02:44:19;2.87;;;2.98;;
14890;SDS011;7537;48.014;11.590;2023-05-07T02:49:46;4.57;;;3.33;;
14890;SDS011;7537;48.014;11.590;2023-05-07T02:55:13;2.81;;;2.94;;
14890;SDS011;7537;48.014;11.590;2023-05-07T03:00:41;4.15;;;3.49;;
14890;SDS011;7537;48.014;11.590;2023-05-07T03:06:10;4.24;;;3.26;;
14890;SDS011;7537;48.014;11.590;2023-05-07T03:11:37;4.27;;;3.59;;
14890;SDS011;7537;48.014;11.590;2023-05-07T03:17:05;2.83;;;3.01;;
14890;SDS011;7537;48.014;11.590;2023-05-07T03:22:32;3.58;;;3.63;;
14890;SDS011;7537;48.014;11.590;2023-05-07T03:27:59;2.67;;;2.86;;
14890;SDS011;7537;48.014;11.590;2023-05-07T03:33:27;4.21;;;3.55;;
14890;SDS011;7537;48.014;11.590;2023-05-07T03:38:56;3.56;;;3.58;;
14890;SDS011;7537;48.014;11.590;2023-05-07T03:44:27;3.05;;;2.83;;
14890;SDS011;7537;48.014;11.590;2023-05-07T03:49:54;3.69;;;3.23;;
14890;SDS011;7537;48.014;11.590;2023-05-07T03:55:22;3.01;;;3.13;;
14890;SDS011;7537;48.014;11.590;2023-05-07T04:00:50;5.91;;;3.30;;
14890;SDS011;7537;48.014;11.590;2023-05-07T04:06:17;3.13;;;3.18;;
14890;SDS011;7537;48.014;11.590;2023-05-07T04:11:46;3.60;;;3.73;;
14890;SDS011;7537;48.014;11.590;2023-05-07T04:17:13;3.91;;;2.93;;
14890;SDS011;7537;48.014;11.590;2023-05-07T04:22:41;4.57;;;3.64;;
14890;SDS011;7537;48.014;11.590;2023-05-07T04:28:09;3.52;;;3.20;;
14890;SDS011;7537;48.014;11.590;2023-05-07T04:33:36;3.92;;;3.48;;
14890;SDS011;7537;48.014;11.590;2023-05-07T04:39:04;2.94;;;3.06;;
14890;SDS011;7537;48.014;11.590;2023-05-07T04:44:37;3.78;;;3.39;;
14890;SDS011;7537;48.014;11.590;2023-05-07T04:50:05;3.23;;;3.37;;
14890;SDS011;7537;48.014;11.590;2023-05-07T04:55:32;3.41;;;3.57;;
14890;SDS011;7537;48.014;11.590;2023-05-07T05:01:00;3.54;;;3.57;;
14890;SDS011;7537;48.014;11.590;2023-05-07T05:06:27;4.57;;;3.27;;
14890;SDS011;7537;48.014;11.590;2023-05-07T05:11:55;3.28;;;3.33;;
14890;SDS011;7537;48.014;11.590;2023-05-07T05:17:24;2.91;;;3.06;;
14890;SDS011;7537;48.014;11.590;2023-05-07T05:22:51;3.08;;;3.23;;
14890;SDS011;7537;48.014;11.590;2023-05-07T05:28:18;3.16;;;3.00;;
14890;SDS011;7537;48.014;11.590;2023-05-07T05:33:46;5.82;;;3.58;;
14890;SDS011;7537;48.014;11.590;2023-05-07T05:39:13;5.23;;;2.87;;
14890;SDS011;7537;48.014;11.590;2023-05-07T05:44:44;2.42;;;2.54;;
14890;SDS011;7537;48.014;11.590;2023-05-07T05:50:13;2.52;;;2.31;;
14890;SDS011;7537;48.014;11.590;2023-05-07T05:55:40;3.06;;;2.55;;
14890;SDS011;7537;48.014;11.590;2023-05-07T06:01:08;2.66;;;2.71;;
14890;SDS011;7537;48.014;11.590;2023-05-07T06:06:36;3.17;;;3.32;;
14890;SDS011;7537;48.014;11.590;2023-05-07T06:12:04;2.87;;;2.91;;
14890;SDS011;7537;48.014;11.590;2023-05-07T06:17:31;3.39;;;3.35;;
14890;SDS011;7537;48.014;11.590;2023-05-07T06:23:00;2.69;;;2.78;;
14890;SDS011;7537;48.014;11.590;2023-05-07T06:28:28;4.61;;;2.38;;
14890;SDS011;7537;48.014;11.590;2023-05-07T06:33:55;2.62;;;2.64;;
14890;SDS011;7537;48.014;11.590;2023-05-07T06:39:24;3.03;;;2.76;;
14890;SDS011;7537;48.014;11.590;2023-05-07T06:44:55;3.10;;;3.09;;
14890;SDS011;7537;48.014;11.590;2023-05-07T06:50:22;3.86;;;2.82;;
14890;SDS011;7537;48.014;11.590;2023-05-07T06:55:50;3.49;;;3.16;;
14890;SDS011;7537;48.014;11.590;2023-05-07T07:01:17;2.64;;;2.83;;
14890;SDS011;7537;48.014;11.590;2023-05-07T07:06:45;3.33;;;2.61;;
14890;SDS011;7537;48.014;11.590;2023-05-07T07:12:15;2.23;;;2.40;;
14890;SDS011;7537;48.014;11.590;2023-05-07T07:17:43;6.34;;;2.88;;
14890;SDS011;7537;48.014;11.590;2023-05-07T07:23:10;2.33;;;2.25;;
14890;SDS011;7537;48.014;11.590;2023-05-07T07:28:42;2.34;;;2.17;;
14890;SDS011;7537;48.014;11.590;2023-05-07T07:34:10;2.09;;;2.20;;
14890;SDS011;7537;48.014;11.590;2023-05-07T07:39:37;1.81;;;1.88;;
14890;SDS011;7537;48.014;11.590;2023-05-07T07:45:10;2.45;;;2.29;;
14890;SDS011;7537;48.014;11.590;2023-05-07T07:50:37;1.94;;;2.06;;
14890;SDS011;7537;48.014;11.590;2023-05-07T07:56:05;2.31;;;2.41;;
14890;SDS011;7537;48.014;11.590;2023-05-07T08:01:32;1.86;;;1.91;;
14890;SDS011;7537;48.014;11.590;2023-05-07T08:07:00;2.11;;;2.14;;
14890;SDS011;7537;48.014;11.590;2023-05-07T08:12:27;1.82;;;1.92;;
14890;SDS011;7537;48.014;11.590;2023-05-07T08:17:56;1.71;;;1.82;;
14890;SDS011;7537;48.014;11.590;2023-05-07T08:23:24;1.16;;;1.28;;
14890;SDS011;7537;48.014;11.590;2023-05-07T08:28:51;2.24;;;1.68;;
14890;SDS011;7537;48.014;11.590;2023-05-07T08:34:19;2.17;;;1.96;;
14890;SDS011;7537;48.014;11.590;2023-05-07T08:39:49;1.53;;;1.41;;
14890;SDS011;7537;48.014;11.590;2023-05-07T08:45:21;1.43;;;1.52;;
14890;SDS011;7537;48.014;11.590;2023-05-07T08:50:52;1.35;;;1.42;;
14890;SDS011;7537;48.014;11.590;2023-05-07T08:56:20;1.75;;;1.66;;
14890;SDS011;7537;48.014;11.590;2023-05-07T09:01:48;1.85;;;1.81;;
14890;SDS011;7537;48.014;11.590;2023-05-07T09:07:17;1.75;;;1.86;;
14890;SDS011;7537;48.014;11.590;2023-05-07T09:12:48;2.54;;;1.94;;
14890;SDS011;7537;48.014;11.590;2023-05-07T09:18:16;3.21;;;1.80;;
14890;SDS011;7537;48.014;11.590;2023-05-07T09:23:46;1.65;;;1.74;;
14890;SDS011;7537;48.014;11.590;2023-05-07T09:29:15;1.54;;;1.57;;
14890;SDS011;7537;48.014;11.590;2023-05-07T09:34:46;1.48;;;1.58;;
14890;SDS011;7537;48.014;11.590;2023-05-07T09:40:21;2.33;;;1.64;;
14890;SDS011;7537;48.014;11.590;2023-05-07T09:45:59;2.76;;;2.42;;
14890;SDS011;7537;48.014;11.590;2023-05-07T09:51:29;1.65;;;1.72;;
14890;SDS011;7537;48.014;11.590;2023-05-07T09:56:59;2.59;;;2.12;;
14890;SDS011;7537;48.014;11.590;2023-05-07T10:02:28;1.94;;;2.04;;
14890;SDS011;7537;48.014;11.590;2023-05-07T10:07:56;2.14;;;2.02;;
14890;SDS011;7537;48.014;11.590;2023-05-07T10:13:25;3.53;;;2.21;;
14890;SDS011;7537;48.014;11.590;2023-05-07T10:18:52;1.81;;;1.59;;
14890;SDS011;7537;48.014;11.590;2023-05-07T10:24:21;3.80;;;1.97;;
14890;SDS011;7537;48.014;11.590;2023-05-07T10:29:55;2.04;;;2.11;;
14890;SDS011;7537;48.014;11.590;2023-05-07T10:35:29;3.52;;;2.19;;
14890;SDS011;7537;48.014;11.590;2023-05-07T10:40:58;2.13;;;2.07;;
14890;SDS011;7537;48.014;11.590;2023-05-07T10:46:33;2.37;;;1.69;;
14890;SDS011;7537;48.014;11.590;2023-05-07T10:57:47;1.31;;;1.36;;
14890;SDS011;7537;48.014;11.590;2023-05-07T11:03:16;2.76;;;1.51;;
14890;SDS011;7537;48.014;11.590;2023-05-07T11:08:53;2.11;;;1.45;;
14890;SDS011;7537;48.014;11.590;2023-05-07T11:20:12;0.98;;;1.08;;
14890;SDS011;7537;48.014;11.590;2023-05-07T11:25:40;2.06;;;1.74;;
14890;SDS011;7537;48.014;11.590;2023-05-07T11:31:08;2.13;;;1.49;;
14890;SDS011;7537;48.014;11.590;2023-05-07T11:36:41;0.92;;;1.04;;
14890;SDS011;7537;48.014;11.590;2023-05-07T11:42:11;1.51;;;1.49;;
14890;SDS011;7537;48.014;11.590;2023-05-07T11:47:55;1.26;;;1.39;;
14890;SDS011;7537;48.014;11.590;2023-05-07T11:53:25;1.19;;;1.26;;
14890;SDS011;7537;48.014;11.590;2023-05-07T11:58:53;2.06;;;2.11;;
14890;SDS011;7537;48.014;11.590;2023-05-07T12:04:21;1.54;;;1.51;;
14890;SDS011;7537;48.014;11.590;2023-05-07T12:09:50;2.34;;;2.10;;
14890;SDS011;7537;48.014;11.590;2023-05-07T12:15:19;1.47;;;1.60;;
14890;SDS011;7537;48.014;11.590;2023-05-07T12:20:50;1.32;;;1.36;;
14890;SDS011;7537;48.014;11.590;2023-05-07T12:26:19;2.81;;;2.31;;
14890;SDS011;7537;48.014;11.590;2023-05-07T12:31:47;2.10;;;1.99;;
14890;SDS011;7537;48.014;11.590;2023-05-07T12:37:16;3.18;;;2.12;;
14890;SDS011;7537;48.014;11.590;2023-05-07T12:42:47;3.91;;;2.50;;
14890;SDS011;7537;48.014;11.590;2023-05-07T12:48:24;2.21;;;2.28;;
14890;SDS011;7537;48.014;11.590;2023-05-07T12:53:51;2.42;;;2.46;;
14890;SDS011;7537;48.014;11.590;2023-05-07T12:59:31;2.01;;;2.06;;
14890;SDS011;7537;48.014;11.590;2023-05-07T13:04:59;2.11;;;2.23;;
14890;SDS011;7537;48.014;11.590;2023-05-07T13:10:26;2.29;;;2.41;;
14890;SDS011;7537;48.014;11.590;2023-05-07T13:15:56;2.74;;;1.90;;
14890;SDS011;7537;48.014;11.590;2023-05-07T13:21:23;1.81;;;1.93;;
14890;SDS011;7537;48.014;11.590;2023-05-07T13:26:50;1.64;;;1.60;;
14890;SDS011;7537;48.014;11.590;2023-05-07T13:32:18;2.61;;;2.63;;
14890;SDS011;7537;48.014;11.590;2023-05-07T13:37:45;1.57;;;1.62;;
14890;SDS011;7537;48.014;11.590;2023-05-07T13:43:12;2.45;;;2.01;;
14890;SDS011;7537;48.014;11.590;2023-05-07T13:48:46;1.92;;;1.97;;
14890;SDS011;7537;48.014;11.590;2023-05-07T13:54:13;2.08;;;2.16;;
14890;SDS011;7537;48.014;11.590;2023-05-07T13:59:42;2.89;;;2.39;;
14890;SDS011;7537;48.014;11.590;2023-05-07T14:05:09;2.41;;;1.89;;
14890;SDS011;7537;48.014;11.590;2023-05-07T14:10:37;2.11;;;2.03;;
14890;SDS011;7537;48.014;11.590;2023-05-07T14:16:05;3.54;;;2.41;;
14890;SDS011;7537;48.014;11.590;2023-05-07T14:21:33;3.61;;;2.14;;
14890;SDS011;7537;48.014;11.590;2023-05-07T14:27:01;2.41;;;1.92;;
14890;SDS011;7537;48.014;11.590;2023-05-07T14:32:28;3.46;;;1.91;;
14890;SDS011;7537;48.014;11.590;2023-05-07T14:37:56;1.88;;;1.95;;
14890;SDS011;7537;48.014;11.590;2023-05-07T14:43:23;4.75;;;1.47;;
14890;SDS011;7537;48.014;11.590;2023-05-07T14:48:56;2.41;;;2.02;;
14890;SDS011;7537;48.014;11.590;2023-05-07T14:54:25;1.94;;;2.02;;
14890;SDS011;7537;48.014;11.590;2023-05-07T14:59:53;1.71;;;1.78;;
14890;SDS011;7537;48.014;11.590;2023-05-07T15:05:26;1.77;;;1.88;;
14890;SDS011;7537;48.014;11.590;2023-05-07T15:10:54;1.53;;;1.58;;
14890;SDS011;7537;48.014;11.590;2023-05-07T15:16:21;2.21;;;2.28;;
14890;SDS011;7537;48.014;11.590;2023-05-07T15:21:49;2.07;;;1.74;;
14890;SDS011;7537;48.014;11.590;2023-05-07T15:27:18;3.09;;;2.02;;
14890;SDS011;7537;48.014;11.590;2023-05-07T15:32:49;1.79;;;1.82;;
14890;SDS011;7537;48.014;11.590;2023-05-07T15:38:16;1.49;;;1.61;;
14890;SDS011;7537;48.014;11.590;2023-05-07T15:43:45;2.23;;;2.23;;
14890;SDS011;7537;48.014;11.590;2023-05-07T15:49:22;2.94;;;1.79;;
14890;SDS011;7537;48.014;11.590;2023-05-07T15:54:49;1.99;;;2.04;;
14890;SDS011;7537;48.014;11.590;2023-05-07T16:00:19;1.86;;;1.90;;
14890;SDS011;7537;48.014;11.590;2023-05-07T16:05:46;2.02;;;1.96;;
14890;SDS011;7537;48.014;11.590;2023-05-07T16:11:14;2.18;;;2.09;;
14890;SDS011;7537;48.014;11.590;2023-05-07T16:16:42;4.29;;;2.34;;
14890;SDS011;7537;48.014;11.590;2023-05-07T16:22:09;1.95;;;1.45;;
14890;SDS011;7537;48.014;11.590;2023-05-07T16:27:36;2.94;;;2.46;;
14890;SDS011;7537;48.014;11.590;2023-05-07T16:33:05;1.73;;;1.69;;
14890;SDS011;7537;48.014;11.590;2023-05-07T16:38:34;1.59;;;1.68;;
14890;SDS011;7537;48.014;11.590;2023-05-07T16:44:01;2.36;;;1.68;;
14890;SDS011;7537;48.014;11.590;2023-05-07T16:49:32;1.86;;;1.57;;
14890;SDS011;7537;48.014;11.590;2023-05-07T16:54:59;1.66;;;1.76;;
14890;SDS011;7537;48.014;11.590;2023-05-07T17:00:27;2.94;;;2.05;;
14890;SDS011;7537;48.014;11.590;2023-05-07T17:05:58;5.51;;;2.14;;
14890;SDS011;7537;48.014;11.590;2023-05-07T17:11:25;3.32;;;1.66;;
14890;SDS011;7537;48.014;11.590;2023-05-07T17:16:53;2.35;;;2.28;;
14890;SDS011;7537;48.014;11.590;2023-05-07T17:22:20;1.87;;;1.72;;
14890;SDS011;7537;48.014;11.590;2023-05-07T17:27:47;1.72;;;1.83;;
14890;SDS011;7537;48.014;11.590;2023-05-07T17:33:15;1.75;;;1.54;;
14890;SDS011;7537;48.014;11.590;2023-05-07T17:38:44;1.31;;;1.36;;
14890;SDS011;7537;48.014;11.590;2023-05-07T17:44:13;1.57;;;1.66;;
14890;SDS011;7537;48.014;11.590;2023-05-07T17:49:43;1.46;;;1.51;;
14890;SDS011;7537;48.014;11.590;2023-05-07T17:55:11;1.65;;;1.77;;
14890;SDS011;7537;48.014;11.590;2023-05-07T18:00:38;1.99;;;1.66;;
14890;SDS011;7537;48.014;11.590;2023-05-07T18:06:05;1.74;;;1.39;;
14890;SDS011;7537;48.014;11.590;2023-05-07T18:11:34;2.02;;;1.87;;
14890;SDS011;7537;48.014;11.590;2023-05-07T18:17:02;1.77;;;1.81;;
14890;SDS011;7537;48.014;11.590;2023-05-07T18:22:30;2.07;;;1.62;;
14890;SDS011;7537;48.014;11.590;2023-05-07T18:27:58;2.29;;;2.40;;
14890;SDS011;7537;48.014;11.590;2023-05-07T18:33:25;2.16;;;2.18;;
14890;SDS011;7537;48.014;11.590;2023-05-07T18:38:53;1.98;;;1.92;;
14890;SDS011;7537;48.014;11.590;2023-05-07T18:44:21;3.29;;;2.37;;
14890;SDS011;7537;48.014;11.590;2023-05-07T18:49:52;3.11;;;2.66;;
14890;SDS011;7537;48.014;11.590;2023-05-07T18:55:20;2.99;;;2.09;;
14890;SDS011;7537;48.014;11.590;2023-05-07T19:00:47;4.01;;;2.58;;
14890;SDS011;7537;48.014;11.590;2023-05-07T19:06:15;2.31;;;2.46;;
14890;SDS011;7537;48.014;11.590;2023-05-07T19:11:42;2.28;;;2.40;;
14890;SDS011;7537;48.014;11.590;2023-05-07T19:17:11;2.78;;;2.63;;
14890;SDS011;7537;48.014;11.590;2023-05-07T19:22:50;2.37;;;2.40;;
14890;SDS011;7537;48.014;11.590;2023-05-07T19:28:18;4.18;;;2.29;;
14890;SDS011;7537;48.014;11.590;2023-05-07T19:33:45;4.80;;;2.71;;
14890;SDS011;7537;48.014;11.590;2023-05-07T19:39:12;3.19;;;3.25;;
14890;SDS011;7537;48.014;11.590;2023-05-07T19:44:40;3.32;;;2.86;;
14890;SDS011;7537;48.014;11.590;2023-05-07T19:50:12;6.73;;;3.27;;
14890;SDS011;7537;48.014;11.590;2023-05-07T19:55:40;3.59;;;2.93;;
14890;SDS011;7537;48.014;11.590;2023-05-07T20:01:07;2.53;;;2.66;;
14890;SDS011;7537;48.014;11.590;2023-05-07T20:06:35;3.65;;;3.05;;
14890;SDS011;7537;48.014;11.590;2023-05-07T20:12:02;3.94;;;3.81;;
14890;SDS011;7537;48.014;11.590;2023-05-07T20:17:29;3.53;;;3.31;;
14890;SDS011;7537;48.014;11.590;2023-05-07T20:22:58;5.44;;;3.46;;
14890;SDS011;7537;48.014;11.590;2023-05-07T20:28:25;3.63;;;3.14;;
14890;SDS011;7537;48.014;11.590;2023-05-07T20:33:53;3.18;;;3.28;;
14890;SDS011;7537;48.014;11.590;2023-05-07T20:39:20;2.73;;;2.88;;
14890;SDS011;7537;48.014;11.590;2023-05-07T20:44:48;3.73;;;3.85;;
14890;SDS011;7537;48.014;11.590;2023-05-07T20:50:18;4.62;;;3.14;;
14890;SDS011;7537;48.014;11.590;2023-05-07T20:55:49;3.39;;;3.01;;
14890;SDS011;7537;48.014;11.590;2023-05-07T21:01:17;3.21;;;3.33;;
14890;SDS011;7537;48.014;11.590;2023-05-07T21:06:45;3.93;;;3.76;;
14890;SDS011;7537;48.014;11.590;2023-05-07T21:12:12;3.86;;;3.36;;
14890;SDS011;7537;48.014;11.590;2023-05-07T21:17:42;3.52;;;3.67;;
14890;SDS011;7537;48.014;11.590;2023-05-07T21:23:09;3.51;;;3.62;;
14890;SDS011;7537;48.014;11.590;2023-05-07T21:28:39;4.00;;;3.81;;
14890;SDS011;7537;48.014;11.590;2023-05-07T21:34:06;3.39;;;3.49;;
14890;SDS011;7537;48.014;11.590;2023-05-07T21:39:34;3.53;;;3.57;;
14890;SDS011;7537;48.014;11.590;2023-05-07T21:45:03;2.98;;;3.10;;
14890;SDS011;7537;48.014;11.590;2023-05-07T21:50:33;6.90;;;3.47;;
14890;SDS011;7537;48.014;11.590;2023-05-07T21:56:01;3.94;;;3.89;;
14890;SDS011;7537;48.014;11.590;2023-05-07T22:01:30;4.93;;;3.49;;
14890;SDS011;7537;48.014;11.590;2023-05-07T22:06:58;6.24;;;3.82;;
14890;SDS011;7537;48.014;11.590;2023-05-07T22:12:25;5.59;;;3.81;;
14890;SDS011;7537;48.014;11.590;2023-05-07T22:17:53;4.39;;;3.53;;
14890;SDS011;7537;48.014;11.590;2023-05-07T22:23:20;3.93;;;3.69;;
14890;SDS011;7537;48.014;11.590;2023-05-07T22:28:48;4.52;;;3.66;;
14890;SDS011;7537;48.014;11.590;2023-05-07T22:34:16;3.87;;;3.29;;
14890;SDS011;7537;48.014;11.590;2023-05-07T22:39:44;3.89;;;4.02;;
14890;SDS011;7537;48.014;11.590;2023-05-07T22:45:11;4.87;;;3.63;;
14890;SDS011;7537;48.014;11.590;2023-05-07T22:50:42;5.74;;;4.05;;
14890;SDS011;7537;48.014;11.590;2023-05-07T22:56:10;3.36;;;3.61;;
14890;SDS011;7537;48.014;11.590;2023-05-07T23:01:37;3.79;;;3.97;;
14890;SDS011;7537;48.014;11.590;2023-05-07T23:07:06;3.67;;;3.77;;
14890;SDS011;7537;48.014;11.590;2023-05-07T23:12:34;3.97;;;4.11;;
14890;SDS011;7537;48.014;11.590;2023-05-07T23:18:01;3.99;;;4.15;;
14890;SDS011;7537;48.014;11.590;2023-05-07T23:23:28;4.91;;;3.64;;
14890;SDS011;7537;48.014;11.590;2023-05-07T23:28:56;4.71;;;3.73;;
14890;SDS011;7537;48.014;11.590;2023-05-07T23:34:23;3.64;;;3.85;;
14890;SDS011;7537;48.014;11.590;2023-05-07T23:39:52;3.84;;;3.97;;
14890;SDS011;7537;48.014;11.590;2023-05-07T23:45:20;3.50;;;3.64;;
14890;SDS011;7537;48.014;11.590;2023-05-07T23:50:51;3.30;;;3.42;;
14890;SDS011;7537;48.014;11.590;2023-05-07T23:56:18;3.56;;;3.74;;
